This is the latest recevied weather packets stored in our database for station/object K3JAR-3. If no packets are shown the sender has not sent any weather packets the latest 10 day(s).
| Time | Temp. | Humidity | Pressure | Rain* | Wind** | Luminosity | Snow |
|---|---|---|---|---|---|---|---|
| 1777402220 | 26.67° C | 87% | 1013.2 hPa | 0 mm | - | - | - |
| 1777401624 | 26.67° C | 87% | 1013.5 hPa | 0 mm | - | - | - |
| 1777399222 | 27.22° C | 86% | 1013.4 hPa | 0 mm | - | - | - |
| 1777397433 | 26.11° C | 89% | 1014.4 hPa | 0 mm | - | - | - |
| 1777379421 | 23.89° C | 96% | 1012.8 hPa | 0 mm | - | - | - |
| 1777378229 | 23.89° C | 96% | 1012.7 hPa | 0 mm | - | - | - |
| 1777375826 | 23.89° C | 96% | 1012.7 hPa | 0 mm | - | - | - |
| 1777374616 | 23.89° C | 96% | 1012.4 hPa | 0 mm | - | - | - |
| 1777369231 | 24.44° C | 93% | 1012.6 hPa | 0 mm | - | - | - |
| 1777368637 | 24.44° C | 93% | 1012.4 hPa | 0 mm | - | - | - |
| 1777357821 | 25° C | 92% | 1012.2 hPa | 0 mm | - | - | - |
| 1777356046 | 25.56° C | 91% | 1012.5 hPa | 0 mm | - | - | - |
| 1777351862 | 26.11° C | 89% | 1012.7 hPa | 0 mm | - | - | - |
| 1777351221 | 26.11° C | 89% | 1012.7 hPa | 0 mm | - | - | - |
| 1777350029 | 26.67° C | 88% | 1012.7 hPa | 0 mm | - | - | - |
| 1777342244 | 27.22° C | 80% | 1011.2 hPa | 0 mm | - | - | - |
| 1777340418 | 28.33° C | 78% | 1010.3 hPa | 0 mm | - | - | - |
| 1777335650 | 30° C | 71% | 1009.5 hPa | 0 mm | - | - | - |
| 1777335036 | 30° C | 71% | 1009.5 hPa | 0 mm | - | - | - |
| 1777334420 | 30° C | 71% | 1009.2 hPa | 0 mm | - | - | - |
| 1777330844 | 32.78° C | 61% | 1009.3 hPa | 0 mm | - | - | - |
| 1777330227 | 32.78° C | 57% | 1009.2 hPa | 0 mm | - | - | - |
| 1777329631 | 32.78° C | 58% | 1009.1 hPa | 0 mm | - | - | - |
| 1777322424 | 34.44° C | 45% | 1009.6 hPa | 0 mm | - | - | - |
| 1777320617 | 33.89° C | 49% | 1009.8 hPa | 0 mm | - | - | - |
* Rain latest hour (hover to see other rain measurements)
** Current wind speed in m/s (hover to see current wind gust speed)